KLRU/LRU METAR and TAF weather

Enter ICAO airport designator
Station Type Date Time Source
KLRU METAR 2019/09/21 21:55 UTC NOAA

KLRU 212155Z AUTO 18010KT 10SM CLR 22/14 A3007 RMK AO2 T02150136


Station Type Date Time Source
KLRU Decoded METAR 2019/09/21 21:55 UTC NOAA

Las Cruces, Las Cruces International Airport, NM, United States (KLRU) 32-17-22N 106-55-19W
Sep 21, 2019 - 05:55 PM EDT / 2019.09.21 2155 UTC
Wind: from the S (180 degrees) at 12 MPH (10 KT):0
Visibility: 10 mile(s):0
Sky conditions: clear
Temperature: 70.7 F (21.5 C)
Dew Point: 56.5 F (13.6 C)
Relative Humidity: 60%
Pressure (altimeter): 30.07 in. Hg (1018 hPa)
ob: KLRU 212155Z AUTO 18010KT 10SM CLR 22/14 A3007 RMK AO2 T02150136
cycle: 22

Station Type Date Time Source
KLRU TAF 2019/09/21 18:34 UTC NOAA

TAF KLRU 211732Z 2118/2218 22005KT P6SM -SHRA BKN090
FM212000 20009G16KT P6SM VCSH BKN080 BKN180
FM220400 21005KT P6SM SCT090 BKN200
FM221200 VRB03KT P6SM SCT080 BKN200

Example: see airport list